Aurelia — PB5046 — position and weather

sailwx.info

Track history (hours):
 
Tides and Currents Weather Stations Pressure Air Temp Water Temp Dewpoint Dewpoint Depression Visibility Wind Speed Wind Dir Waves Ship Positions

Aurelia

Last reported at 2016-Nov-30 09:31 UTC. Time now 2016-Dec-09 03:59 UTC.
Position N 53°03' E 005°24'.
Warning: this ship's position is 8 days out of date.

Length 32 m; draft 3.8 m.

Type: Pleasure craft. MMSI: 244630125.

Date/timePositionNaut miles runAvg speedWind from/ knotsBaromVisibWave heightAir tempDewpointWater temp
2016-Nov-30 09:31N 53°03' E 005°24'0 0.0
2016-Nov-29 15:12N 53°03' E 005°24'0 0.0
2016-Nov-29 10:19N 53°03' E 005°24'2 2.5
2016-Nov-29 09:33N 53°02' E 005°21'6 5.8
2016-Nov-29 08:33N 52°57' E 005°24'0 0.0
2016-Nov-28 13:33N 52°57' E 005°24'2 2.0
2016-Nov-28 12:33N 52°58' E 005°22'2 2.5
2016-Nov-28 11:33N 52°60' E 005°19'3 3.4
2016-Nov-28 10:33N 53°03' E 005°21'2 1.8
2016-Nov-28 09:33N 53°03' E 005°24'0 0.0
2016-Nov-28 08:33N 53°03' E 005°24'0 0.0
2016-Nov-28 07:33N 53°03' E 005°24'  
Track history (hours):
 
Tides and Currents Weather Stations Pressure Air Temp Water Temp Dewpoint Dewpoint Depression Visibility Wind Speed Wind Dir Waves Ship Positions

Aurelia

Last reported at 2016-Nov-30 09:31 UTC. Time now 2016-Dec-09 03:59 UTC.
Position N 53°03' E 005°24'.
Warning: this ship's position is 8 days out of date.

Length 32 m; draft 3.8 m.

Type: Pleasure craft. MMSI: 244630125.

Date/timePositionNaut miles runAvg speedWind from/ knotsBaromVisibWave heightAir tempDewpointWater temp
2016-Nov-30 09:31N 53°03' E 005°24'0 0.0
2016-Nov-29 15:12N 53°03' E 005°24'0 0.0
2016-Nov-29 10:19N 53°03' E 005°24'2 2.5
2016-Nov-29 09:33N 53°02' E 005°21'6 5.8
2016-Nov-29 08:33N 52°57' E 005°24'0 0.0
2016-Nov-28 13:33N 52°57' E 005°24'2 2.0
2016-Nov-28 12:33N 52°58' E 005°22'2 2.5
2016-Nov-28 11:33N 52°60' E 005°19'3 3.4
2016-Nov-28 10:33N 53°03' E 005°21'2 1.8
2016-Nov-28 09:33N 53°03' E 005°24'0 0.0
2016-Nov-28 08:33N 53°03' E 005°24'0 0.0
2016-Nov-28 07:33N 53°03' E 005°24'  

Dump ship's entire track history